createdAt,value
2022-11-28T00:01:37.135Z,8.18
2022-11-28T00:04:05.855Z,8.32
2022-11-28T00:06:37.025Z,8.48
2022-11-28T00:09:05.810Z,7.25
2022-11-28T00:11:33.755Z,8.25
2022-11-28T00:14:01.709Z,8.23
2022-11-28T00:16:29.751Z,8.13
2022-11-28T00:19:01.544Z,8.68
2022-11-28T00:21:30.043Z,7.65
2022-11-28T00:23:58.782Z,8.25
2022-11-28T00:26:28.831Z,8.63
2022-11-28T00:28:57.822Z,7.47
2022-11-28T00:31:27.911Z,9.00
2022-11-28T00:33:56.252Z,8.27
2022-11-28T00:36:26.065Z,7.72
2022-11-28T00:38:54.042Z,8.60
2022-11-28T00:41:25.058Z,8.65
2022-11-28T00:43:53.705Z,7.13
2022-11-28T00:46:22.848Z,7.50
2022-11-28T00:48:51.289Z,7.80
2022-11-28T00:51:22.072Z,7.85
2022-11-28T00:53:54.247Z,9.05
2022-11-28T00:56:25.761Z,8.40
2022-11-28T00:58:54.447Z,8.57
2022-11-28T01:01:25.502Z,8.85
2022-11-28T01:03:56.251Z,8.07
2022-11-28T01:06:26.098Z,8.90
2022-11-28T01:08:56.278Z,9.43
2022-11-28T01:11:24.390Z,8.98
2022-11-28T01:13:55.016Z,8.20
2022-11-28T01:16:23.205Z,8.98
2022-11-28T01:18:51.595Z,9.02
2022-11-28T01:21:20.388Z,8.32
2022-11-28T01:23:48.378Z,8.15
2022-11-28T01:26:19.839Z,8.00
2022-11-28T01:28:48.557Z,8.23
2022-11-28T01:31:19.119Z,9.32
2022-11-28T01:33:47.750Z,8.80
2022-11-28T01:36:16.387Z,7.80
2022-11-28T01:38:44.782Z,7.82
2022-11-28T01:41:13.660Z,8.32
2022-11-28T01:43:59.869Z,8.02
2022-11-28T01:46:28.498Z,7.88
2022-11-28T01:48:58.846Z,7.50
2022-11-28T01:51:27.038Z,7.82
2022-11-28T01:53:55.733Z,6.82
2022-11-28T01:56:27.871Z,6.80
2022-11-28T01:59:05.391Z,6.72
2022-11-28T02:01:34.905Z,6.63
2022-11-28T02:04:05.297Z,7.28
2022-11-28T02:06:34.108Z,7.15
2022-11-28T02:09:02.134Z,8.13
2022-11-28T02:12:01.286Z,6.03
2022-11-28T02:14:44.489Z,7.05
2022-11-28T02:17:21.469Z,7.60
2022-11-28T02:20:33.909Z,6.60
2022-11-28T02:23:09.015Z,6.63
2022-11-28T02:26:06.580Z,7.55
2022-11-28T02:28:58.224Z,7.25
2022-11-28T02:31:43.957Z,7.47
2022-11-28T02:34:19.049Z,8.20
2022-11-28T02:36:56.145Z,6.88
2022-11-28T02:39:32.507Z,6.95
2022-11-28T02:42:08.793Z,6.85
2022-11-28T02:44:48.437Z,6.80
2022-11-28T02:47:24.137Z,6.82
2022-11-28T02:49:58.115Z,7.32
2022-11-28T02:52:30.543Z,7.88
2022-11-28T02:54:59.555Z,7.35
2022-11-28T02:57:35.432Z,8.10
2022-11-28T03:00:04.094Z,8.45
2022-11-28T03:02:34.052Z,7.43
2022-11-28T03:05:14.147Z,7.72
2022-11-28T03:07:58.503Z,8.80
2022-11-28T03:10:36.597Z,8.23
2022-11-28T03:13:11.392Z,7.47
2022-11-28T03:15:52.116Z,8.70
2022-11-28T03:18:25.066Z,8.70
2022-11-28T03:20:57.734Z,8.60
2022-11-28T03:23:34.442Z,8.55
2022-11-28T03:26:08.525Z,8.15
2022-11-28T03:28:43.752Z,8.52
2022-11-28T03:31:16.073Z,8.57
2022-11-28T03:33:48.295Z,8.52
2022-11-28T03:36:21.240Z,8.20
2022-11-28T03:38:51.539Z,8.68
2022-11-28T03:41:26.179Z,7.75
2022-11-28T03:43:58.530Z,8.27
2022-11-28T03:46:32.611Z,7.43
2022-11-28T03:49:03.443Z,8.30
2022-11-28T03:51:36.860Z,8.45
2022-11-28T03:54:08.880Z,8.40
2022-11-28T03:56:45.115Z,7.75
2022-11-28T03:59:17.755Z,8.07
2022-11-28T04:01:54.497Z,8.30
2022-11-28T04:04:30.087Z,8.15
2022-11-28T04:07:07.154Z,9.02
2022-11-28T04:09:40.844Z,7.57
2022-11-28T04:12:18.381Z,8.05
2022-11-28T04:14:50.342Z,8.65
2022-11-28T04:17:22.199Z,7.57
2022-11-28T04:19:55.096Z,8.43
2022-11-28T04:22:28.214Z,8.48
2022-11-28T04:24:59.261Z,8.52
2022-11-28T04:27:31.495Z,7.82
2022-11-28T04:30:01.871Z,7.70
2022-11-28T04:32:32.427Z,8.48
2022-11-28T04:35:06.933Z,7.95
2022-11-28T04:37:40.070Z,8.55
2022-11-28T04:40:12.223Z,9.27
2022-11-28T04:42:47.603Z,8.15
2022-11-28T04:45:24.655Z,8.68
2022-11-28T04:47:52.879Z,7.90
2022-11-28T04:50:22.869Z,7.78
2022-11-28T04:52:55.626Z,7.63
2022-11-28T04:55:29.846Z,8.88
2022-11-28T04:58:05.394Z,8.63
2022-11-28T05:00:35.508Z,7.85
2022-11-28T05:03:04.750Z,8.32
2022-11-28T05:05:33.161Z,8.40
2022-11-28T05:08:02.503Z,7.50
2022-11-28T05:10:30.621Z,7.63
2022-11-28T05:12:58.539Z,8.85
2022-11-28T05:15:26.519Z,7.32
2022-11-28T05:17:57.558Z,8.73
2022-11-28T05:20:25.942Z,8.20
2022-11-28T05:22:53.970Z,7.43
2022-11-28T05:25:23.438Z,8.43
2022-11-28T05:27:51.424Z,7.47
2022-11-28T05:30:19.472Z,7.82
2022-11-28T05:32:47.480Z,7.20
2022-11-28T05:35:15.442Z,7.00
2022-11-28T05:37:43.392Z,7.53
2022-11-28T05:40:11.879Z,7.32
2022-11-28T05:42:41.155Z,6.90
2022-11-28T05:45:10.099Z,7.15
2022-11-28T05:47:38.056Z,7.13
2022-11-28T05:50:08.018Z,6.97
2022-11-28T05:52:35.965Z,7.35
2022-11-28T05:55:03.932Z,5.95
2022-11-28T05:57:33.210Z,7.47
2022-11-28T06:00:03.182Z,6.90
2022-11-28T06:02:39.608Z,7.05
2022-11-28T06:05:27.663Z,7.43
2022-11-28T06:07:56.091Z,7.28
2022-11-28T06:10:24.149Z,7.55
2022-11-28T06:12:52.101Z,8.05
2022-11-28T06:15:21.641Z,7.40
2022-11-28T06:17:51.527Z,7.53
2022-11-28T06:20:19.593Z,7.68
2022-11-28T06:22:47.924Z,8.55
2022-11-28T06:25:16.061Z,8.15
2022-11-28T06:27:44.011Z,6.88
2022-11-28T06:30:12.343Z,8.23
2022-11-28T06:32:41.626Z,7.95
2022-11-28T06:35:09.929Z,7.28
2022-11-28T06:37:37.918Z,7.93
2022-11-28T06:40:07.135Z,7.57
2022-11-28T06:42:36.690Z,7.97
2022-11-28T06:45:05.156Z,7.22
2022-11-28T06:47:33.189Z,7.90
2022-11-28T06:50:02.587Z,7.50
2022-11-28T06:52:30.486Z,7.47
2022-11-28T06:54:58.585Z,7.20
2022-11-28T06:57:26.862Z,6.97
2022-11-28T06:59:54.790Z,7.95
2022-11-28T07:02:24.985Z,7.70
2022-11-28T07:04:52.984Z,6.65
2022-11-28T07:07:22.406Z,7.28
2022-11-28T07:09:52.914Z,6.50
2022-11-28T07:12:20.930Z,6.70
2022-11-28T07:14:48.949Z,6.30
2022-11-28T07:17:17.162Z,6.90
2022-11-28T07:19:49.240Z,6.53
2022-11-28T07:22:20.010Z,7.10
2022-11-28T07:24:49.318Z,7.95
2022-11-28T07:27:19.330Z,6.60
2022-11-28T07:29:47.266Z,7.28
2022-11-28T07:32:15.192Z,7.40
2022-11-28T07:34:47.724Z,6.97
2022-11-28T07:37:18.354Z,6.50
2022-11-28T07:39:46.345Z,7.32
2022-11-28T07:42:15.680Z,6.47
2022-11-28T07:44:47.576Z,8.48
2022-11-28T07:47:15.563Z,8.05
2022-11-28T07:49:43.773Z,6.95
2022-11-28T07:52:12.041Z,6.85
2022-11-28T07:54:41.167Z,8.00
2022-11-28T07:57:13.178Z,7.25
2022-11-28T07:59:43.646Z,7.97
2022-11-28T08:02:14.706Z,6.97
2022-11-28T08:04:50.479Z,7.30
2022-11-28T08:07:20.788Z,6.90
2022-11-28T08:09:48.762Z,6.53
2022-11-28T08:12:16.704Z,6.95
2022-11-28T08:14:46.161Z,6.88
2022-11-28T08:17:14.109Z,6.22
2022-11-28T08:19:42.098Z,6.72
2022-11-28T08:22:10.154Z,6.90
2022-11-28T08:24:41.152Z,6.75
2022-11-28T08:27:09.368Z,7.47
2022-11-28T08:29:37.323Z,6.40
2022-11-28T08:32:06.776Z,6.78
2022-11-28T08:34:34.762Z,6.32
2022-11-28T08:37:02.728Z,7.05
2022-11-28T08:39:30.672Z,7.05
2022-11-28T08:41:59.533Z,6.10
2022-11-28T08:44:30.346Z,6.18
2022-11-28T08:46:59.682Z,5.85
2022-11-28T08:49:28.969Z,6.28
2022-11-28T08:51:56.926Z,6.75
2022-11-28T08:54:24.909Z,6.40
2022-11-28T08:56:55.683Z,6.22
2022-11-28T08:59:24.029Z,6.18
2022-11-28T09:01:53.507Z,6.05
2022-11-28T09:04:21.799Z,5.50
2022-11-28T09:06:51.730Z,6.47
2022-11-28T09:09:20.214Z,6.00
2022-11-28T09:11:48.234Z,5.93
2022-11-28T09:14:16.187Z,5.90
2022-11-28T09:16:44.132Z,6.05
2022-11-28T09:19:12.159Z,6.47
2022-11-28T09:21:41.491Z,5.95
2022-11-28T09:24:13.841Z,5.80
2022-11-28T09:26:41.839Z,6.22
2022-11-28T09:29:09.816Z,5.68
2022-11-28T09:31:37.771Z,5.43
2022-11-28T09:34:05.732Z,6.32
2022-11-28T09:36:33.846Z,6.20
2022-11-28T09:39:04.029Z,6.13
2022-11-28T09:41:57.181Z,5.60
2022-11-28T09:44:31.008Z,5.10
2022-11-28T09:47:01.389Z,5.05
2022-11-28T09:49:40.626Z,5.60
2022-11-28T09:52:22.528Z,5.00
2022-11-28T09:54:57.858Z,4.82
2022-11-28T09:57:33.479Z,5.57
2022-11-28T10:00:02.162Z,5.40
2022-11-28T10:02:46.099Z,5.22
2022-11-28T10:05:24.267Z,5.63
2022-11-28T10:08:04.920Z,5.30
2022-11-28T10:10:39.828Z,5.03
2022-11-28T10:13:16.103Z,5.03
2022-11-28T10:15:52.034Z,6.07
2022-11-28T10:18:34.097Z,5.10
2022-11-28T10:21:06.243Z,4.65
2022-11-28T10:23:39.237Z,4.85
2022-11-28T10:26:12.814Z,5.32
2022-11-28T10:28:44.801Z,4.35
2022-11-28T10:31:18.165Z,4.65
2022-11-28T10:33:52.991Z,5.20
2022-11-28T10:36:27.901Z,4.68
2022-11-28T10:38:55.958Z,4.72
2022-11-28T10:41:29.746Z,3.55
2022-11-28T10:44:06.152Z,4.38
2022-11-28T10:46:50.860Z,4.35
2022-11-28T10:49:31.543Z,4.88
2022-11-28T10:52:07.484Z,4.97
2022-11-28T10:54:52.862Z,4.95
2022-11-28T10:57:24.939Z,4.65
2022-11-28T11:00:06.892Z,5.55
2022-11-28T11:02:38.943Z,4.78
2022-11-28T11:05:08.343Z,5.28
2022-11-28T11:07:36.483Z,5.95
2022-11-28T11:10:16.182Z,4.78
2022-11-28T11:12:45.091Z,4.30
2022-11-28T11:15:21.242Z,6.15
2022-11-28T11:17:50.798Z,5.75
2022-11-28T11:20:38.775Z,4.43
2022-11-28T11:23:16.932Z,4.75
2022-11-28T11:25:53.150Z,5.15
2022-11-28T11:28:33.417Z,4.85
2022-11-28T11:31:05.654Z,4.93
2022-11-28T11:33:36.167Z,4.55
2022-11-28T11:36:25.863Z,4.43
2022-11-28T11:39:06.950Z,4.70
2022-11-28T11:41:35.120Z,5.70
2022-11-28T11:44:35.772Z,4.75
2022-11-28T11:47:07.404Z,4.85
2022-11-28T11:49:37.189Z,4.85
2022-11-28T11:52:14.919Z,5.28
2022-11-28T11:54:56.261Z,4.75
2022-11-28T11:57:34.739Z,4.50
2022-11-28T12:00:07.906Z,4.85
2022-11-28T12:02:44.991Z,4.75
2022-11-28T12:05:16.651Z,4.30
2022-11-28T12:07:55.867Z,5.15
2022-11-28T12:10:27.094Z,4.20
2022-11-28T12:12:55.451Z,4.88
2022-11-28T12:15:33.978Z,4.82
2022-11-28T12:18:16.464Z,4.00
2022-11-28T12:20:59.739Z,4.15
2022-11-28T12:23:51.204Z,4.85
2022-11-28T12:26:26.293Z,4.65
2022-11-28T12:29:09.390Z,4.07
2022-11-28T12:31:47.255Z,5.60
2022-11-28T12:34:27.641Z,4.65
2022-11-28T12:37:06.113Z,5.03
2022-11-28T12:39:45.501Z,4.45
2022-11-28T12:42:32.518Z,5.00
2022-11-28T12:45:26.607Z,5.07
2022-11-28T12:48:03.680Z,4.70
2022-11-28T12:50:37.541Z,4.60
2022-11-28T12:53:25.250Z,5.07
2022-11-28T12:56:02.419Z,5.70
2022-11-28T12:58:35.784Z,4.50
2022-11-28T13:01:19.743Z,4.13
2022-11-28T13:03:59.935Z,4.63
2022-11-28T13:06:34.938Z,4.93
2022-11-28T13:09:15.546Z,4.43
2022-11-28T13:11:54.303Z,4.97
2022-11-28T13:14:30.776Z,5.15
2022-11-28T13:17:07.370Z,5.28
2022-11-28T13:19:46.275Z,4.80
2022-11-28T13:22:23.399Z,5.45
2022-11-28T13:25:01.620Z,5.22
2022-11-28T13:27:36.984Z,5.57
2022-11-28T13:30:17.133Z,6.13
2022-11-28T13:32:50.507Z,4.28
2022-11-28T13:35:20.655Z,6.28
2022-11-28T13:40:52.755Z,5.65
2022-11-28T13:43:27.572Z,5.43
2022-11-28T13:45:56.583Z,5.88
2022-11-28T13:49:13.833Z,7.07
2022-11-28T13:51:43.108Z,5.47
2022-11-28T13:54:41.329Z,6.22
2022-11-28T13:57:21.527Z,5.20
2022-11-28T13:59:57.169Z,9.95
2022-11-28T14:02:35.301Z,5.82
2022-11-28T14:05:04.733Z,5.82
2022-11-28T14:07:35.337Z,5.55
2022-11-28T14:10:26.572Z,6.32
2022-11-28T14:13:09.772Z,6.38
2022-11-28T14:15:48.959Z,5.55
2022-11-28T14:18:55.627Z,6.95
2022-11-28T14:21:28.065Z,5.43
2022-11-28T14:24:04.366Z,5.47
2022-11-28T14:26:39.964Z,4.85
2022-11-28T14:29:21.584Z,4.80
2022-11-28T14:32:13.582Z,4.97
2022-11-28T14:34:43.720Z,5.60
2022-11-28T14:37:59.939Z,4.50
2022-11-28T14:41:06.624Z,5.22
2022-11-28T14:43:41.138Z,5.20
2022-11-28T14:46:30.811Z,5.47
2022-11-28T14:49:21.503Z,5.18
2022-11-28T14:52:39.063Z,5.00
2022-11-28T14:55:20.148Z,4.00
2022-11-28T14:57:57.953Z,5.22
2022-11-28T15:00:29.543Z,5.50
2022-11-28T15:03:21.654Z,6.70
2022-11-28T15:05:55.400Z,6.28
2022-11-28T15:08:52.435Z,6.13
2022-11-28T15:11:44.699Z,5.38
2022-11-28T15:14:22.291Z,6.22
2022-11-28T15:16:55.735Z,5.78
2022-11-28T15:19:27.715Z,7.25
2022-11-28T15:21:58.578Z,6.32
2022-11-28T15:24:30.344Z,5.72
2022-11-28T15:27:19.073Z,5.50
2022-11-28T15:29:54.847Z,5.30
2022-11-28T15:32:25.342Z,5.00
2022-11-28T15:34:57.936Z,5.65
2022-11-28T15:37:29.426Z,4.95
2022-11-28T15:39:59.193Z,5.05
2022-11-28T15:42:31.048Z,5.32
2022-11-28T15:45:04.277Z,6.38
2022-11-28T15:47:34.133Z,6.05
2022-11-28T15:50:05.681Z,5.28
2022-11-28T15:52:33.871Z,5.53
2022-11-28T15:55:02.967Z,5.25
2022-11-28T15:57:32.562Z,5.28
2022-11-28T16:00:05.099Z,5.45
2022-11-28T16:02:44.173Z,5.95
2022-11-28T16:05:20.723Z,6.65
2022-11-28T16:07:50.889Z,5.80
2022-11-28T16:10:25.134Z,6.20
2022-11-28T16:12:59.045Z,5.15
2022-11-28T16:15:27.786Z,5.15
2022-11-28T16:17:57.870Z,5.20
2022-11-28T16:20:27.968Z,5.05
2022-11-28T16:23:00.297Z,6.20
2022-11-28T16:25:28.683Z,5.53
2022-11-28T16:27:57.599Z,5.47
2022-11-28T16:30:29.819Z,4.72
2022-11-28T16:33:00.030Z,5.45
2022-11-28T16:35:30.157Z,5.70
2022-11-28T16:38:06.375Z,5.18
2022-11-28T16:40:34.483Z,5.82
2022-11-28T16:43:04.871Z,6.00
2022-11-28T16:45:34.530Z,5.35
2022-11-28T16:48:09.858Z,6.55
2022-11-28T16:50:38.874Z,5.15
2022-11-28T16:53:06.939Z,6.63
2022-11-28T16:55:44.218Z,5.15
2022-11-28T16:58:15.333Z,4.72
2022-11-28T17:00:47.688Z,5.05
2022-11-28T17:03:43.035Z,4.93
2022-11-28T17:06:20.361Z,5.43
2022-11-28T17:08:48.570Z,4.90
2022-11-28T17:11:19.773Z,5.68
2022-11-28T17:13:47.771Z,4.97
2022-11-28T17:16:18.269Z,5.78
2022-11-28T17:18:48.308Z,5.38
2022-11-28T17:21:18.106Z,5.30
2022-11-28T17:23:46.338Z,5.10
2022-11-28T17:26:14.286Z,5.47
2022-11-28T17:28:42.238Z,4.35
2022-11-28T17:31:12.956Z,5.65
2022-11-28T17:33:44.617Z,6.38
2022-11-28T17:36:14.550Z,6.32
2022-11-28T17:38:42.561Z,4.97
2022-11-28T17:41:13.939Z,4.63
2022-11-28T17:43:42.680Z,4.68
2022-11-28T17:46:11.181Z,4.32
2022-11-28T17:48:39.220Z,5.35
2022-11-28T17:51:07.285Z,5.28
2022-11-28T17:53:38.053Z,5.22
2022-11-28T17:56:06.702Z,5.40
2022-11-28T17:58:34.702Z,5.35
2022-11-28T18:01:02.873Z,5.13
2022-11-28T18:03:31.095Z,5.18
2022-11-28T18:05:59.125Z,5.38
2022-11-28T18:08:27.277Z,5.07
2022-11-28T18:11:05.485Z,5.38
2022-11-28T18:13:33.790Z,5.40
2022-11-28T18:16:02.360Z,5.63
2022-11-28T18:18:31.963Z,6.47
2022-11-28T18:21:00.964Z,6.35
2022-11-28T18:23:28.959Z,6.03
2022-11-28T18:25:57.822Z,5.45
2022-11-28T18:28:27.122Z,5.68
2022-11-28T18:30:55.159Z,6.05
2022-11-28T18:33:23.275Z,5.25
2022-11-28T18:35:51.217Z,6.18
2022-11-28T18:38:19.194Z,5.35
2022-11-28T18:40:47.116Z,5.50
2022-11-28T18:43:15.124Z,6.70
2022-11-28T18:45:44.465Z,6.70
2022-11-28T18:48:12.832Z,7.35
2022-11-28T18:50:40.848Z,5.70
2022-11-28T18:53:08.921Z,7.07
2022-11-28T18:55:36.890Z,7.30
2022-11-28T18:58:04.934Z,9.60
2022-11-28T19:00:33.098Z,8.77
2022-11-28T19:03:02.391Z,8.15
2022-11-28T19:05:33.885Z,9.35
2022-11-28T19:08:04.635Z,10.65
2022-11-28T19:10:32.884Z,9.60
2022-11-28T19:13:00.944Z,8.43
2022-11-28T19:15:29.069Z,7.63
2022-11-28T19:17:57.146Z,8.60
2022-11-28T19:20:26.516Z,7.63
2022-11-28T19:22:54.572Z,8.15
2022-11-28T19:25:22.714Z,7.95
2022-11-28T19:27:50.771Z,7.72
2022-11-28T19:30:19.014Z,9.90
2022-11-28T19:32:47.054Z,8.23
2022-11-28T19:35:15.201Z,9.40
2022-11-28T19:37:45.682Z,8.50
2022-11-28T19:40:15.061Z,9.20
2022-11-28T19:42:43.158Z,8.13
2022-11-28T19:45:11.922Z,11.25
2022-11-28T19:47:39.883Z,11.05
2022-11-28T19:50:09.905Z,9.25
2022-11-28T19:52:38.272Z,9.73
2022-11-28T19:55:10.175Z,9.52
2022-11-28T19:57:38.791Z,8.57
2022-11-28T20:00:08.207Z,6.93
2022-11-28T20:02:41.926Z,7.70
2022-11-28T20:05:10.663Z,7.43
2022-11-28T20:07:38.819Z,8.25
2022-11-28T20:10:10.146Z,8.07
2022-11-28T20:12:38.959Z,8.38
2022-11-28T20:15:09.776Z,8.27
2022-11-28T20:17:39.610Z,8.50
2022-11-28T20:20:10.079Z,8.65
2022-11-28T20:22:40.763Z,7.60
2022-11-28T20:25:10.845Z,9.45
2022-11-28T20:27:40.355Z,8.15
2022-11-28T20:30:09.894Z,8.18
2022-11-28T20:32:39.504Z,7.50
2022-11-28T20:35:09.415Z,8.15
2022-11-28T20:37:38.980Z,7.65
2022-11-28T20:40:08.302Z,7.30
2022-11-28T20:42:40.150Z,7.88
2022-11-28T20:45:10.979Z,7.80
2022-11-28T20:47:48.229Z,6.63
2022-11-28T20:50:17.868Z,7.53
2022-11-28T20:52:45.930Z,8.07
2022-11-28T20:55:14.087Z,6.90
2022-11-28T20:57:43.345Z,7.78
2022-11-28T21:00:12.655Z,7.47
2022-11-28T21:02:40.699Z,7.45
2022-11-28T21:05:09.411Z,7.30
2022-11-28T21:07:37.436Z,7.47
2022-11-28T21:10:06.357Z,8.60
2022-11-28T21:12:34.656Z,7.95
2022-11-28T21:15:07.634Z,9.45
2022-11-28T21:17:36.300Z,9.82
2022-11-28T21:20:05.098Z,10.45
2022-11-28T21:22:33.093Z,11.82
2022-11-28T21:25:01.027Z,11.48
2022-11-28T21:27:28.988Z,14.07
2022-11-28T21:29:57.080Z,12.52
2022-11-28T21:32:26.382Z,10.55
2022-11-28T21:35:02.585Z,10.77
2022-11-28T21:37:32.353Z,11.25
2022-11-28T21:40:00.562Z,10.48
2022-11-28T21:42:28.527Z,10.50
2022-11-28T21:44:56.711Z,10.57
2022-11-28T21:47:26.032Z,10.95
2022-11-28T21:49:54.026Z,12.20
2022-11-28T21:52:24.044Z,10.95
2022-11-28T21:54:52.613Z,13.95
2022-11-28T21:57:21.028Z,11.18
2022-11-28T21:59:49.224Z,12.63
2022-11-28T22:02:18.032Z,12.20
2022-11-28T22:04:47.691Z,11.88
2022-11-28T22:07:15.904Z,9.88
2022-11-28T22:09:44.024Z,9.30
2022-11-28T22:12:11.989Z,7.57
2022-11-28T22:14:40.913Z,8.73
2022-11-28T22:17:09.076Z,8.10
2022-11-28T22:19:37.073Z,8.85
2022-11-28T22:22:06.383Z,8.48
2022-11-28T22:24:35.895Z,9.88
2022-11-28T22:27:05.758Z,9.45
2022-11-28T22:29:34.671Z,8.65
2022-11-28T22:32:02.938Z,8.65
2022-11-28T22:34:33.551Z,8.68
2022-11-28T22:37:06.372Z,8.07
2022-11-28T22:39:34.385Z,8.35
2022-11-28T22:42:02.620Z,8.80
2022-11-28T22:44:30.690Z,8.38
2022-11-28T22:46:58.678Z,7.88
2022-11-28T22:49:26.672Z,10.57
2022-11-28T22:51:54.684Z,11.45
2022-11-28T22:54:24.041Z,11.93
2022-11-28T22:56:53.591Z,11.30
2022-11-28T22:59:21.829Z,9.40
2022-11-28T23:01:50.567Z,9.80
2022-11-28T23:04:18.846Z,8.23
2022-11-28T23:06:46.869Z,9.65
2022-11-28T23:09:15.036Z,8.65
2022-11-28T23:11:45.537Z,9.63
2022-11-28T23:14:15.480Z,9.55
2022-11-28T23:16:45.246Z,8.90
2022-11-28T23:19:16.125Z,6.97
2022-11-28T23:21:47.154Z,7.35
2022-11-28T23:24:16.926Z,7.45
2022-11-28T23:26:48.521Z,7.28
2022-11-28T23:29:17.495Z,6.95
2022-11-28T23:31:47.172Z,7.40
2022-11-28T23:34:15.849Z,8.27
2022-11-28T23:36:46.407Z,8.38
2022-11-28T23:39:16.306Z,9.20
2022-11-28T23:41:44.599Z,7.95
2022-11-28T23:44:15.414Z,9.07
2022-11-28T23:46:43.998Z,9.82
2022-11-28T23:49:12.292Z,8.38
2022-11-28T23:51:41.119Z,7.68
2022-11-28T23:54:10.340Z,8.60
2022-11-28T23:56:40.459Z,8.05
2022-11-28T23:59:09.894Z,10.70
